Terminal Aerodrome Forecast
Issued by NWS Albuquerque, NM

Home | Current Version | Previous Version | Text Only | Print | Product List | Glossary On
Versions: 1 2 3 4 5 6 7 8 9 10 11 12
000
FTUS45 KABQ 221738
TAFABQ
TAF
KABQ 221738Z 2218/2318 19011KT P6SM BKN200
     FM222000 20016G26KT P6SM BKN200
      TEMPO 2222/2301 20023G33KT
     FM230200 16011KT P6SM SCT200
     FM231400 20011KT P6SM SKC
     FM231600 21016G26KT P6SM SCT250=

USA.gov is the U.S. government's official web portal to all federal, state and local government web resources and services.